sensor_id;sensor_type;location;lat;lon;timestamp;P1;durP1;ratioP1;P2;durP2;ratioP2
46607;SDS011;32330;51.936;7.184;2024-01-06T00:00:49;11.90;;;9.90;;
46607;SDS011;32330;51.936;7.184;2024-01-06T00:03:15;11.57;;;9.63;;
46607;SDS011;32330;51.936;7.184;2024-01-06T00:05:42;11.90;;;10.15;;
46607;SDS011;32330;51.936;7.184;2024-01-06T00:08:13;10.13;;;8.60;;
46607;SDS011;32330;51.936;7.184;2024-01-06T00:10:40;12.55;;;10.20;;
46607;SDS011;32330;51.936;7.184;2024-01-06T00:13:09;13.05;;;9.95;;
46607;SDS011;32330;51.936;7.184;2024-01-06T00:15:36;11.88;;;10.13;;
46607;SDS011;32330;51.936;7.184;2024-01-06T00:18:03;12.77;;;11.05;;
46607;SDS011;32330;51.936;7.184;2024-01-06T00:20:30;12.65;;;10.80;;
46607;SDS011;32330;51.936;7.184;2024-01-06T00:22:57;13.27;;;11.07;;
46607;SDS011;32330;51.936;7.184;2024-01-06T00:25:27;12.80;;;10.93;;
46607;SDS011;32330;51.936;7.184;2024-01-06T00:27:54;13.32;;;11.32;;
46607;SDS011;32330;51.936;7.184;2024-01-06T00:30:23;15.85;;;11.88;;
46607;SDS011;32330;51.936;7.184;2024-01-06T00:32:50;13.23;;;11.27;;
46607;SDS011;32330;51.936;7.184;2024-01-06T00:35:17;11.77;;;10.18;;
46607;SDS011;32330;51.936;7.184;2024-01-06T00:37:44;16.13;;;12.80;;
46607;SDS011;32330;51.936;7.184;2024-01-06T00:40:11;12.75;;;10.73;;
46607;SDS011;32330;51.936;7.184;2024-01-06T00:42:39;14.88;;;12.40;;
46607;SDS011;32330;51.936;7.184;2024-01-06T00:45:06;13.82;;;11.07;;
46607;SDS011;32330;51.936;7.184;2024-01-06T00:47:35;15.52;;;11.23;;
46607;SDS011;32330;51.936;7.184;2024-01-06T00:50:02;13.07;;;10.70;;
46607;SDS011;32330;51.936;7.184;2024-01-06T00:52:29;14.68;;;11.25;;
46607;SDS011;32330;51.936;7.184;2024-01-06T00:54:56;14.43;;;10.95;;
46607;SDS011;32330;51.936;7.184;2024-01-06T00:57:23;13.82;;;10.73;;
46607;SDS011;32330;51.936;7.184;2024-01-06T00:59:50;14.18;;;11.32;;
46607;SDS011;32330;51.936;7.184;2024-01-06T01:02:17;16.48;;;10.95;;
46607;SDS011;32330;51.936;7.184;2024-01-06T01:04:45;15.10;;;11.68;;
46607;SDS011;32330;51.936;7.184;2024-01-06T01:07:12;14.38;;;11.32;;
46607;SDS011;32330;51.936;7.184;2024-01-06T01:09:39;15.07;;;12.13;;
46607;SDS011;32330;51.936;7.184;2024-01-06T01:12:06;14.75;;;11.77;;
46607;SDS011;32330;51.936;7.184;2024-01-06T01:14:33;18.98;;;14.10;;
46607;SDS011;32330;51.936;7.184;2024-01-06T01:17:00;15.77;;;12.77;;
46607;SDS011;32330;51.936;7.184;2024-01-06T01:19:27;14.15;;;10.88;;
46607;SDS011;32330;51.936;7.184;2024-01-06T01:21:56;12.50;;;10.32;;
46607;SDS011;32330;51.936;7.184;2024-01-06T01:24:23;14.25;;;10.60;;
46607;SDS011;32330;51.936;7.184;2024-01-06T01:26:50;15.85;;;11.40;;
46607;SDS011;32330;51.936;7.184;2024-01-06T01:29:17;15.73;;;10.77;;
46607;SDS011;32330;51.936;7.184;2024-01-06T01:31:45;14.18;;;10.88;;
46607;SDS011;32330;51.936;7.184;2024-01-06T01:34:12;17.35;;;13.27;;
46607;SDS011;32330;51.936;7.184;2024-01-06T01:36:39;15.52;;;11.73;;
46607;SDS011;32330;51.936;7.184;2024-01-06T01:39:08;16.67;;;11.32;;
46607;SDS011;32330;51.936;7.184;2024-01-06T01:41:35;18.48;;;12.43;;
46607;SDS011;32330;51.936;7.184;2024-01-06T01:44:02;15.18;;;11.77;;
46607;SDS011;32330;51.936;7.184;2024-01-06T01:46:30;15.18;;;12.02;;
46607;SDS011;32330;51.936;7.184;2024-01-06T01:48:57;16.38;;;12.70;;
46607;SDS011;32330;51.936;7.184;2024-01-06T01:51:26;16.80;;;12.38;;
46607;SDS011;32330;51.936;7.184;2024-01-06T01:53:55;18.27;;;13.40;;
46607;SDS011;32330;51.936;7.184;2024-01-06T01:56:24;19.75;;;14.02;;
46607;SDS011;32330;51.936;7.184;2024-01-06T01:58:52;20.17;;;15.25;;
46607;SDS011;32330;51.936;7.184;2024-01-06T02:01:20;20.55;;;15.93;;
46607;SDS011;32330;51.936;7.184;2024-01-06T02:03:47;23.63;;;17.38;;
46607;SDS011;32330;51.936;7.184;2024-01-06T02:06:14;24.50;;;18.70;;
46607;SDS011;32330;51.936;7.184;2024-01-06T02:08:41;20.73;;;15.95;;
46607;SDS011;32330;51.936;7.184;2024-01-06T02:11:07;19.55;;;14.93;;
46607;SDS011;32330;51.936;7.184;2024-01-06T02:13:36;19.60;;;14.73;;
46607;SDS011;32330;51.936;7.184;2024-01-06T02:16:04;21.35;;;15.32;;
46607;SDS011;32330;51.936;7.184;2024-01-06T02:18:32;19.00;;;14.82;;
46607;SDS011;32330;51.936;7.184;2024-01-06T02:20:59;19.25;;;13.88;;
46607;SDS011;32330;51.936;7.184;2024-01-06T02:23:29;17.63;;;13.48;;
46607;SDS011;32330;51.936;7.184;2024-01-06T02:25:56;18.65;;;13.85;;
46607;SDS011;32330;51.936;7.184;2024-01-06T02:28:23;14.73;;;10.52;;
46607;SDS011;32330;51.936;7.184;2024-01-06T02:30:50;16.05;;;10.40;;
46607;SDS011;32330;51.936;7.184;2024-01-06T02:33:17;13.60;;;9.13;;
46607;SDS011;32330;51.936;7.184;2024-01-06T02:35:44;13.20;;;9.52;;
46607;SDS011;32330;51.936;7.184;2024-01-06T02:38:11;12.55;;;9.10;;
46607;SDS011;32330;51.936;7.184;2024-01-06T02:40:40;12.00;;;8.15;;
46607;SDS011;32330;51.936;7.184;2024-01-06T02:43:08;13.32;;;8.93;;
46607;SDS011;32330;51.936;7.184;2024-01-06T02:45:35;13.82;;;9.77;;
46607;SDS011;32330;51.936;7.184;2024-01-06T02:48:02;14.52;;;9.32;;
46607;SDS011;32330;51.936;7.184;2024-01-06T02:50:29;12.77;;;9.05;;
46607;SDS011;32330;51.936;7.184;2024-01-06T02:52:56;12.00;;;8.73;;
46607;SDS011;32330;51.936;7.184;2024-01-06T02:55:23;14.40;;;9.55;;
46607;SDS011;32330;51.936;7.184;2024-01-06T02:57:52;15.68;;;10.95;;
46607;SDS011;32330;51.936;7.184;2024-01-06T03:00:19;13.13;;;9.43;;
46607;SDS011;32330;51.936;7.184;2024-01-06T03:02:46;16.58;;;10.98;;
46607;SDS011;32330;51.936;7.184;2024-01-06T03:05:13;14.30;;;10.30;;
46607;SDS011;32330;51.936;7.184;2024-01-06T03:07:40;13.32;;;8.65;;
46607;SDS011;32330;51.936;7.184;2024-01-06T03:10:07;13.35;;;9.60;;
46607;SDS011;32330;51.936;7.184;2024-01-06T03:12:34;14.38;;;9.52;;
46607;SDS011;32330;51.936;7.184;2024-01-06T03:15:03;12.98;;;9.68;;
46607;SDS011;32330;51.936;7.184;2024-01-06T03:17:30;15.35;;;9.85;;
46607;SDS011;32330;51.936;7.184;2024-01-06T03:19:57;14.15;;;10.80;;
46607;SDS011;32330;51.936;7.184;2024-01-06T03:22:24;16.65;;;11.63;;
46607;SDS011;32330;51.936;7.184;2024-01-06T03:24:51;16.10;;;11.30;;
46607;SDS011;32330;51.936;7.184;2024-01-06T03:27:18;15.73;;;11.48;;
46607;SDS011;32330;51.936;7.184;2024-01-06T03:29:45;16.33;;;11.60;;
46607;SDS011;32330;51.936;7.184;2024-01-06T03:32:13;16.60;;;11.13;;
46607;SDS011;32330;51.936;7.184;2024-01-06T03:34:40;19.52;;;13.27;;
46607;SDS011;32330;51.936;7.184;2024-01-06T03:37:08;15.10;;;11.80;;
46607;SDS011;32330;51.936;7.184;2024-01-06T03:39:35;14.18;;;10.75;;
46607;SDS011;32330;51.936;7.184;2024-01-06T03:42:02;13.40;;;9.93;;
46607;SDS011;32330;51.936;7.184;2024-01-06T03:44:29;14.88;;;10.63;;
46607;SDS011;32330;51.936;7.184;2024-01-06T03:46:58;14.05;;;10.90;;
46607;SDS011;32330;51.936;7.184;2024-01-06T03:49:27;16.05;;;12.02;;
46607;SDS011;32330;51.936;7.184;2024-01-06T03:51:54;15.35;;;11.85;;
46607;SDS011;32330;51.936;7.184;2024-01-06T03:54:21;15.45;;;10.85;;
46607;SDS011;32330;51.936;7.184;2024-01-06T03:56:48;15.57;;;10.90;;
46607;SDS011;32330;51.936;7.184;2024-01-06T03:59:15;17.50;;;11.63;;
46607;SDS011;32330;51.936;7.184;2024-01-06T04:01:42;19.80;;;13.50;;
46607;SDS011;32330;51.936;7.184;2024-01-06T04:04:09;18.13;;;13.75;;
46607;SDS011;32330;51.936;7.184;2024-01-06T04:06:37;14.23;;;11.10;;
46607;SDS011;32330;51.936;7.184;2024-01-06T04:09:04;14.90;;;10.82;;
46607;SDS011;32330;51.936;7.184;2024-01-06T04:11:31;12.38;;;9.88;;
46607;SDS011;32330;51.936;7.184;2024-01-06T04:13:58;14.73;;;10.93;;
46607;SDS011;32330;51.936;7.184;2024-01-06T04:16:25;14.15;;;10.43;;
46607;SDS011;32330;51.936;7.184;2024-01-06T04:18:53;17.40;;;11.80;;
46607;SDS011;32330;51.936;7.184;2024-01-06T04:21:20;14.82;;;10.77;;
46607;SDS011;32330;51.936;7.184;2024-01-06T04:23:49;13.07;;;10.27;;
46607;SDS011;32330;51.936;7.184;2024-01-06T04:26:15;14.35;;;10.60;;
46607;SDS011;32330;51.936;7.184;2024-01-06T04:28:42;13.95;;;9.98;;
46607;SDS011;32330;51.936;7.184;2024-01-06T04:31:09;14.77;;;10.05;;
46607;SDS011;32330;51.936;7.184;2024-01-06T04:33:36;16.10;;;11.65;;
46607;SDS011;32330;51.936;7.184;2024-01-06T04:36:06;17.10;;;11.82;;
46607;SDS011;32330;51.936;7.184;2024-01-06T04:38:33;15.77;;;10.45;;
46607;SDS011;32330;51.936;7.184;2024-01-06T04:41:01;15.07;;;10.27;;
46607;SDS011;32330;51.936;7.184;2024-01-06T04:43:29;12.75;;;8.95;;
46607;SDS011;32330;51.936;7.184;2024-01-06T04:45:56;11.05;;;8.63;;
46607;SDS011;32330;51.936;7.184;2024-01-06T04:48:23;10.73;;;8.18;;
46607;SDS011;32330;51.936;7.184;2024-01-06T04:50:50;13.00;;;9.25;;
46607;SDS011;32330;51.936;7.184;2024-01-06T04:53:17;10.55;;;7.93;;
46607;SDS011;32330;51.936;7.184;2024-01-06T04:55:44;11.90;;;8.45;;
46607;SDS011;32330;51.936;7.184;2024-01-06T04:58:12;10.63;;;7.88;;
46607;SDS011;32330;51.936;7.184;2024-01-06T05:00:39;11.32;;;8.75;;
46607;SDS011;32330;51.936;7.184;2024-01-06T05:03:06;10.63;;;7.57;;
46607;SDS011;32330;51.936;7.184;2024-01-06T05:05:33;13.05;;;9.85;;
46607;SDS011;32330;51.936;7.184;2024-01-06T05:08:00;15.40;;;10.32;;
46607;SDS011;32330;51.936;7.184;2024-01-06T05:10:28;12.48;;;8.93;;
46607;SDS011;32330;51.936;7.184;2024-01-06T05:12:55;13.48;;;9.57;;
46607;SDS011;32330;51.936;7.184;2024-01-06T05:15:23;13.07;;;9.73;;
46607;SDS011;32330;51.936;7.184;2024-01-06T05:17:50;14.70;;;10.07;;
46607;SDS011;32330;51.936;7.184;2024-01-06T05:20:17;13.98;;;10.23;;
46607;SDS011;32330;51.936;7.184;2024-01-06T05:22:44;12.27;;;9.15;;
46607;SDS011;32330;51.936;7.184;2024-01-06T05:25:11;12.68;;;8.40;;
46607;SDS011;32330;51.936;7.184;2024-01-06T05:27:38;11.13;;;8.20;;
46607;SDS011;32330;51.936;7.184;2024-01-06T05:30:05;10.85;;;7.60;;
46607;SDS011;32330;51.936;7.184;2024-01-06T05:32:35;9.63;;;7.00;;
46607;SDS011;32330;51.936;7.184;2024-01-06T05:35:03;9.45;;;6.45;;
46607;SDS011;32330;51.936;7.184;2024-01-06T05:37:31;8.85;;;6.05;;
46607;SDS011;32330;51.936;7.184;2024-01-06T05:39:58;8.38;;;5.97;;
46607;SDS011;32330;51.936;7.184;2024-01-06T05:42:26;7.03;;;5.50;;
46607;SDS011;32330;51.936;7.184;2024-01-06T05:44:53;6.93;;;5.80;;
46607;SDS011;32330;51.936;7.184;2024-01-06T05:47:20;9.30;;;6.63;;
46607;SDS011;32330;51.936;7.184;2024-01-06T05:49:49;7.93;;;5.75;;
46607;SDS011;32330;51.936;7.184;2024-01-06T05:52:16;7.32;;;6.32;;
46607;SDS011;32330;51.936;7.184;2024-01-06T05:54:43;7.88;;;6.18;;
46607;SDS011;32330;51.936;7.184;2024-01-06T05:57:10;9.48;;;7.07;;
46607;SDS011;32330;51.936;7.184;2024-01-06T05:59:37;11.23;;;7.82;;
46607;SDS011;32330;51.936;7.184;2024-01-06T06:02:05;9.85;;;7.32;;
46607;SDS011;32330;51.936;7.184;2024-01-06T06:04:32;12.88;;;7.63;;
46607;SDS011;32330;51.936;7.184;2024-01-06T06:07:01;9.40;;;7.50;;
46607;SDS011;32330;51.936;7.184;2024-01-06T06:09:28;12.32;;;8.45;;
46607;SDS011;32330;51.936;7.184;2024-01-06T06:11:55;11.27;;;8.57;;
46607;SDS011;32330;51.936;7.184;2024-01-06T06:14:22;13.70;;;10.50;;
46607;SDS011;32330;51.936;7.184;2024-01-06T06:16:49;14.05;;;10.40;;
46607;SDS011;32330;51.936;7.184;2024-01-06T06:19:16;12.18;;;9.00;;
46607;SDS011;32330;51.936;7.184;2024-01-06T06:21:43;10.75;;;8.15;;
46607;SDS011;32330;51.936;7.184;2024-01-06T06:24:12;10.50;;;7.93;;
46607;SDS011;32330;51.936;7.184;2024-01-06T06:26:39;12.27;;;9.80;;
46607;SDS011;32330;51.936;7.184;2024-01-06T06:29:06;13.27;;;9.00;;
46607;SDS011;32330;51.936;7.184;2024-01-06T06:31:33;15.63;;;10.32;;
46607;SDS011;32330;51.936;7.184;2024-01-06T06:34:00;12.60;;;9.80;;
46607;SDS011;32330;51.936;7.184;2024-01-06T06:36:27;13.68;;;10.30;;
46607;SDS011;32330;51.936;7.184;2024-01-06T06:38:54;17.33;;;12.15;;
46607;SDS011;32330;51.936;7.184;2024-01-06T06:41:24;17.02;;;12.35;;
46607;SDS011;32330;51.936;7.184;2024-01-06T06:43:51;20.77;;;14.60;;
46607;SDS011;32330;51.936;7.184;2024-01-06T06:46:18;19.40;;;13.27;;
46607;SDS011;32330;51.936;7.184;2024-01-06T06:48:45;18.95;;;12.68;;
46607;SDS011;32330;51.936;7.184;2024-01-06T06:51:12;25.23;;;14.27;;
46607;SDS011;32330;51.936;7.184;2024-01-06T06:53:39;25.70;;;15.27;;
46607;SDS011;32330;51.936;7.184;2024-01-06T06:56:06;19.98;;;13.57;;
46607;SDS011;32330;51.936;7.184;2024-01-06T06:58:34;18.65;;;12.77;;
46607;SDS011;32330;51.936;7.184;2024-01-06T07:01:02;25.52;;;14.82;;
46607;SDS011;32330;51.936;7.184;2024-01-06T07:03:30;21.23;;;14.88;;
46607;SDS011;32330;51.936;7.184;2024-01-06T07:05:57;29.23;;;17.05;;
46607;SDS011;32330;51.936;7.184;2024-01-06T07:08:24;24.63;;;16.45;;
46607;SDS011;32330;51.936;7.184;2024-01-06T07:10:51;24.73;;;17.60;;
46607;SDS011;32330;51.936;7.184;2024-01-06T07:13:18;26.10;;;16.17;;
46607;SDS011;32330;51.936;7.184;2024-01-06T07:15:47;24.60;;;16.00;;
46607;SDS011;32330;51.936;7.184;2024-01-06T07:18:14;24.25;;;16.58;;
46607;SDS011;32330;51.936;7.184;2024-01-06T07:20:41;23.58;;;16.33;;
46607;SDS011;32330;51.936;7.184;2024-01-06T07:23:08;26.02;;;17.65;;
46607;SDS011;32330;51.936;7.184;2024-01-06T07:25:35;26.75;;;17.48;;
46607;SDS011;32330;51.936;7.184;2024-01-06T07:28:02;31.52;;;19.35;;
46607;SDS011;32330;51.936;7.184;2024-01-06T07:30:29;27.00;;;19.30;;
46607;SDS011;32330;51.936;7.184;2024-01-06T07:32:58;27.40;;;17.58;;
46607;SDS011;32330;51.936;7.184;2024-01-06T07:35:25;32.75;;;21.73;;
46607;SDS011;32330;51.936;7.184;2024-01-06T07:37:53;27.45;;;17.83;;
46607;SDS011;32330;51.936;7.184;2024-01-06T07:40:20;27.88;;;18.60;;
46607;SDS011;32330;51.936;7.184;2024-01-06T07:42:48;26.88;;;18.08;;
46607;SDS011;32330;51.936;7.184;2024-01-06T07:45:16;26.25;;;18.33;;
46607;SDS011;32330;51.936;7.184;2024-01-06T07:47:43;28.40;;;19.23;;
46607;SDS011;32330;51.936;7.184;2024-01-06T07:50:12;23.98;;;16.30;;
46607;SDS011;32330;51.936;7.184;2024-01-06T07:52:39;28.27;;;18.02;;
46607;SDS011;32330;51.936;7.184;2024-01-06T07:55:06;22.40;;;16.48;;
46607;SDS011;32330;51.936;7.184;2024-01-06T07:57:34;23.42;;;16.48;;
46607;SDS011;32330;51.936;7.184;2024-01-06T08:00:01;22.65;;;15.15;;
46607;SDS011;32330;51.936;7.184;2024-01-06T08:02:37;21.27;;;15.55;;
46607;SDS011;32330;51.936;7.184;2024-01-06T08:05:04;23.33;;;17.52;;
46607;SDS011;32330;51.936;7.184;2024-01-06T08:07:33;22.90;;;16.05;;
46607;SDS011;32330;51.936;7.184;2024-01-06T08:10:00;22.80;;;16.17;;
46607;SDS011;32330;51.936;7.184;2024-01-06T08:12:30;23.35;;;16.83;;
46607;SDS011;32330;51.936;7.184;2024-01-06T08:14:57;25.48;;;18.15;;
46607;SDS011;32330;51.936;7.184;2024-01-06T08:17:24;28.20;;;19.13;;
46607;SDS011;32330;51.936;7.184;2024-01-06T08:19:51;21.67;;;16.40;;
46607;SDS011;32330;51.936;7.184;2024-01-06T08:22:18;23.70;;;16.88;;
46607;SDS011;32330;51.936;7.184;2024-01-06T08:24:47;24.65;;;17.55;;
46607;SDS011;32330;51.936;7.184;2024-01-06T08:27:14;27.58;;;19.48;;
46607;SDS011;32330;51.936;7.184;2024-01-06T08:29:41;28.50;;;18.92;;
46607;SDS011;32330;51.936;7.184;2024-01-06T08:32:08;28.67;;;17.63;;
46607;SDS011;32330;51.936;7.184;2024-01-06T08:34:35;25.83;;;18.02;;
46607;SDS011;32330;51.936;7.184;2024-01-06T08:37:02;28.02;;;19.23;;
46607;SDS011;32330;51.936;7.184;2024-01-06T08:39:30;24.30;;;16.60;;
46607;SDS011;32330;51.936;7.184;2024-01-06T08:41:58;27.73;;;19.13;;
46607;SDS011;32330;51.936;7.184;2024-01-06T08:44:25;24.45;;;16.45;;
46607;SDS011;32330;51.936;7.184;2024-01-06T08:46:53;24.25;;;15.88;;
46607;SDS011;32330;51.936;7.184;2024-01-06T08:49:20;23.35;;;17.65;;
46607;SDS011;32330;51.936;7.184;2024-01-06T08:51:47;21.75;;;15.70;;
46607;SDS011;32330;51.936;7.184;2024-01-06T08:54:14;22.98;;;16.33;;
46607;SDS011;32330;51.936;7.184;2024-01-06T08:56:41;26.27;;;18.08;;
46607;SDS011;32330;51.936;7.184;2024-01-06T08:59:10;22.92;;;16.00;;
46607;SDS011;32330;51.936;7.184;2024-01-06T09:01:37;20.63;;;15.38;;
46607;SDS011;32330;51.936;7.184;2024-01-06T09:04:05;22.88;;;17.17;;
46607;SDS011;32330;51.936;7.184;2024-01-06T09:06:32;19.65;;;15.57;;
46607;SDS011;32330;51.936;7.184;2024-01-06T09:09:00;29.27;;;20.10;;
46607;SDS011;32330;51.936;7.184;2024-01-06T09:11:27;31.02;;;20.88;;
46607;SDS011;32330;51.936;7.184;2024-01-06T09:13:54;23.05;;;17.60;;
46607;SDS011;32330;51.936;7.184;2024-01-06T09:16:23;23.10;;;17.58;;
46607;SDS011;32330;51.936;7.184;2024-01-06T09:18:50;25.60;;;17.80;;
46607;SDS011;32330;51.936;7.184;2024-01-06T09:21:17;19.35;;;14.32;;
46607;SDS011;32330;51.936;7.184;2024-01-06T09:23:44;22.10;;;17.25;;
46607;SDS011;32330;51.936;7.184;2024-01-06T09:26:12;21.98;;;16.15;;
46607;SDS011;32330;51.936;7.184;2024-01-06T09:28:41;22.65;;;16.15;;
46607;SDS011;32330;51.936;7.184;2024-01-06T09:31:08;22.63;;;15.48;;
46607;SDS011;32330;51.936;7.184;2024-01-06T09:33:37;22.58;;;16.35;;
46607;SDS011;32330;51.936;7.184;2024-01-06T09:36:05;19.40;;;12.98;;
46607;SDS011;32330;51.936;7.184;2024-01-06T09:38:34;20.38;;;14.98;;
46607;SDS011;32330;51.936;7.184;2024-01-06T09:41:01;21.63;;;14.77;;
46607;SDS011;32330;51.936;7.184;2024-01-06T09:43:29;19.83;;;13.85;;
46607;SDS011;32330;51.936;7.184;2024-01-06T09:45:58;22.20;;;15.25;;
46607;SDS011;32330;51.936;7.184;2024-01-06T09:48:31;19.20;;;14.85;;
46607;SDS011;32330;51.936;7.184;2024-01-06T09:51:07;20.05;;;13.95;;
46607;SDS011;32330;51.936;7.184;2024-01-06T09:53:38;18.63;;;12.52;;
46607;SDS011;32330;51.936;7.184;2024-01-06T09:56:09;16.90;;;12.93;;
46607;SDS011;32330;51.936;7.184;2024-01-06T09:58:37;20.75;;;14.77;;
46607;SDS011;32330;51.936;7.184;2024-01-06T10:01:06;25.00;;;15.25;;
46607;SDS011;32330;51.936;7.184;2024-01-06T10:03:34;23.25;;;16.30;;
46607;SDS011;32330;51.936;7.184;2024-01-06T10:06:02;19.00;;;14.80;;
46607;SDS011;32330;51.936;7.184;2024-01-06T10:08:31;19.98;;;15.05;;
46607;SDS011;32330;51.936;7.184;2024-01-06T10:11:00;18.88;;;12.95;;
46607;SDS011;32330;51.936;7.184;2024-01-06T10:13:27;15.77;;;12.00;;
46607;SDS011;32330;51.936;7.184;2024-01-06T10:15:55;18.42;;;12.90;;
46607;SDS011;32330;51.936;7.184;2024-01-06T10:18:24;17.38;;;12.93;;
46607;SDS011;32330;51.936;7.184;2024-01-06T10:20:52;15.48;;;11.60;;
46607;SDS011;32330;51.936;7.184;2024-01-06T10:23:21;18.55;;;13.02;;
46607;SDS011;32330;51.936;7.184;2024-01-06T10:25:55;18.95;;;13.32;;
46607;SDS011;32330;51.936;7.184;2024-01-06T10:28:22;19.17;;;14.25;;
46607;SDS011;32330;51.936;7.184;2024-01-06T10:30:53;14.38;;;10.18;;
46607;SDS011;32330;51.936;7.184;2024-01-06T10:33:23;18.75;;;12.50;;
46607;SDS011;32330;51.936;7.184;2024-01-06T10:35:52;17.13;;;12.85;;
46607;SDS011;32330;51.936;7.184;2024-01-06T10:38:22;16.52;;;11.68;;
46607;SDS011;32330;51.936;7.184;2024-01-06T10:41:05;15.38;;;11.77;;
46607;SDS011;32330;51.936;7.184;2024-01-06T10:43:35;14.40;;;11.32;;
46607;SDS011;32330;51.936;7.184;2024-01-06T10:46:09;15.13;;;11.32;;
46607;SDS011;32330;51.936;7.184;2024-01-06T10:48:55;17.25;;;13.30;;
46607;SDS011;32330;51.936;7.184;2024-01-06T10:52:07;14.63;;;10.82;;
46607;SDS011;32330;51.936;7.184;2024-01-06T10:54:35;16.13;;;11.32;;
46607;SDS011;32330;51.936;7.184;2024-01-06T10:57:05;15.65;;;10.43;;
46607;SDS011;32330;51.936;7.184;2024-01-06T10:59:33;16.13;;;11.38;;
46607;SDS011;32330;51.936;7.184;2024-01-06T11:02:25;16.73;;;12.32;;
46607;SDS011;32330;51.936;7.184;2024-01-06T11:04:55;15.93;;;11.55;;
46607;SDS011;32330;51.936;7.184;2024-01-06T11:07:25;16.05;;;10.23;;
46607;SDS011;32330;51.936;7.184;2024-01-06T11:09:57;16.55;;;12.00;;
46607;SDS011;32330;51.936;7.184;2024-01-06T11:12:30;16.27;;;12.55;;
46607;SDS011;32330;51.936;7.184;2024-01-06T11:14:57;14.32;;;11.40;;
46607;SDS011;32330;51.936;7.184;2024-01-06T11:20:21;15.43;;;12.57;;
46607;SDS011;32330;51.936;7.184;2024-01-06T11:22:51;16.45;;;11.75;;
46607;SDS011;32330;51.936;7.184;2024-01-06T11:25:18;15.95;;;12.30;;
46607;SDS011;32330;51.936;7.184;2024-01-06T11:27:48;16.23;;;11.75;;
46607;SDS011;32330;51.936;7.184;2024-01-06T11:30:20;17.38;;;13.45;;
46607;SDS011;32330;51.936;7.184;2024-01-06T11:35:18;21.30;;;16.65;;
46607;SDS011;32330;51.936;7.184;2024-01-06T11:37:52;22.73;;;16.02;;
46607;SDS011;32330;51.936;7.184;2024-01-06T11:40:25;16.80;;;14.07;;
46607;SDS011;32330;51.936;7.184;2024-01-06T11:43:06;18.10;;;15.20;;
46607;SDS011;32330;51.936;7.184;2024-01-06T11:45:39;18.58;;;14.23;;
46607;SDS011;32330;51.936;7.184;2024-01-06T11:48:08;18.40;;;13.73;;
46607;SDS011;32330;51.936;7.184;2024-01-06T11:50:37;16.50;;;13.48;;
46607;SDS011;32330;51.936;7.184;2024-01-06T11:53:06;18.17;;;13.85;;
46607;SDS011;32330;51.936;7.184;2024-01-06T11:55:35;15.70;;;11.90;;
46607;SDS011;32330;51.936;7.184;2024-01-06T11:58:05;12.25;;;10.75;;
46607;SDS011;32330;51.936;7.184;2024-01-06T12:00:33;13.65;;;10.27;;
46607;SDS011;32330;51.936;7.184;2024-01-06T12:03:01;14.63;;;11.23;;
46607;SDS011;32330;51.936;7.184;2024-01-06T12:05:28;14.25;;;11.55;;
46607;SDS011;32330;51.936;7.184;2024-01-06T12:07:56;14.15;;;10.43;;
46607;SDS011;32330;51.936;7.184;2024-01-06T12:10:24;12.20;;;9.95;;
46607;SDS011;32330;51.936;7.184;2024-01-06T12:12:57;13.00;;;9.75;;
46607;SDS011;32330;51.936;7.184;2024-01-06T12:17:53;17.38;;;11.85;;
46607;SDS011;32330;51.936;7.184;2024-01-06T12:20:21;13.40;;;11.25;;
46607;SDS011;32330;51.936;7.184;2024-01-06T12:22:48;15.48;;;12.50;;
46607;SDS011;32330;51.936;7.184;2024-01-06T12:25:15;16.77;;;11.63;;
46607;SDS011;32330;51.936;7.184;2024-01-06T12:27:42;14.90;;;12.02;;
46607;SDS011;32330;51.936;7.184;2024-01-06T12:30:12;18.63;;;14.18;;
46607;SDS011;32330;51.936;7.184;2024-01-06T12:32:43;15.63;;;13.18;;
46607;SDS011;32330;51.936;7.184;2024-01-06T12:35:11;14.40;;;11.23;;
46607;SDS011;32330;51.936;7.184;2024-01-06T12:37:38;15.02;;;12.70;;
46607;SDS011;32330;51.936;7.184;2024-01-06T12:40:06;16.65;;;12.23;;
46607;SDS011;32330;51.936;7.184;2024-01-06T12:42:35;16.35;;;12.32;;
46607;SDS011;32330;51.936;7.184;2024-01-06T12:45:03;15.27;;;12.90;;
46607;SDS011;32330;51.936;7.184;2024-01-06T12:47:31;13.00;;;10.75;;
46607;SDS011;32330;51.936;7.184;2024-01-06T12:49:59;13.70;;;11.18;;
46607;SDS011;32330;51.936;7.184;2024-01-06T12:52:26;14.15;;;10.85;;
46607;SDS011;32330;51.936;7.184;2024-01-06T12:54:53;12.82;;;10.65;;
46607;SDS011;32330;51.936;7.184;2024-01-06T12:57:20;12.00;;;10.48;;
46607;SDS011;32330;51.936;7.184;2024-01-06T12:59:47;11.15;;;9.73;;
46607;SDS011;32330;51.936;7.184;2024-01-06T13:02:14;14.63;;;11.32;;
46607;SDS011;32330;51.936;7.184;2024-01-06T13:04:41;12.85;;;10.00;;
46607;SDS011;32330;51.936;7.184;2024-01-06T13:07:10;12.73;;;9.93;;
46607;SDS011;32330;51.936;7.184;2024-01-06T13:09:37;13.57;;;10.15;;
46607;SDS011;32330;51.936;7.184;2024-01-06T13:12:05;13.05;;;9.73;;
46607;SDS011;32330;51.936;7.184;2024-01-06T13:14:33;12.35;;;9.20;;
46607;SDS011;32330;51.936;7.184;2024-01-06T13:17:01;11.48;;;9.23;;
46607;SDS011;32330;51.936;7.184;2024-01-06T13:19:31;11.57;;;9.73;;
46607;SDS011;32330;51.936;7.184;2024-01-06T13:21:59;12.23;;;9.60;;
46607;SDS011;32330;51.936;7.184;2024-01-06T13:24:27;11.50;;;9.98;;
46607;SDS011;32330;51.936;7.184;2024-01-06T13:26:54;11.00;;;8.45;;
46607;SDS011;32330;51.936;7.184;2024-01-06T13:29:24;10.38;;;9.15;;
46607;SDS011;32330;51.936;7.184;2024-01-06T13:31:51;11.98;;;10.02;;
46607;SDS011;32330;51.936;7.184;2024-01-06T13:34:18;11.90;;;9.85;;
46607;SDS011;32330;51.936;7.184;2024-01-06T13:36:45;13.80;;;11.30;;
46607;SDS011;32330;51.936;7.184;2024-01-06T13:39:12;16.58;;;12.38;;
46607;SDS011;32330;51.936;7.184;2024-01-06T13:41:46;13.43;;;10.88;;
46607;SDS011;32330;51.936;7.184;2024-01-06T13:44:14;17.40;;;12.85;;
46607;SDS011;32330;51.936;7.184;2024-01-06T13:46:41;17.52;;;14.00;;
46607;SDS011;32330;51.936;7.184;2024-01-06T13:49:10;16.48;;;12.73;;
46607;SDS011;32330;51.936;7.184;2024-01-06T13:51:37;17.35;;;13.73;;
46607;SDS011;32330;51.936;7.184;2024-01-06T13:54:04;15.15;;;12.82;;
46607;SDS011;32330;51.936;7.184;2024-01-06T13:56:32;17.38;;;12.38;;
46607;SDS011;32330;51.936;7.184;2024-01-06T13:59:00;17.15;;;12.45;;
46607;SDS011;32330;51.936;7.184;2024-01-06T14:01:27;17.75;;;13.90;;
46607;SDS011;32330;51.936;7.184;2024-01-06T14:03:55;20.63;;;15.65;;
46607;SDS011;32330;51.936;7.184;2024-01-06T14:06:24;24.15;;;15.52;;
46607;SDS011;32330;51.936;7.184;2024-01-06T14:08:56;18.05;;;13.48;;
46607;SDS011;32330;51.936;7.184;2024-01-06T14:11:23;21.08;;;15.93;;
46607;SDS011;32330;51.936;7.184;2024-01-06T14:13:56;18.90;;;14.30;;
46607;SDS011;32330;51.936;7.184;2024-01-06T14:24:41;20.75;;;15.30;;
46607;SDS011;32330;51.936;7.184;2024-01-06T14:27:08;21.15;;;15.05;;
46607;SDS011;32330;51.936;7.184;2024-01-06T14:29:36;20.45;;;15.27;;
46607;SDS011;32330;51.936;7.184;2024-01-06T14:32:04;18.52;;;14.60;;
46607;SDS011;32330;51.936;7.184;2024-01-06T14:34:31;18.40;;;14.68;;
46607;SDS011;32330;51.936;7.184;2024-01-06T14:36:59;20.73;;;15.63;;
46607;SDS011;32330;51.936;7.184;2024-01-06T14:39:26;18.00;;;14.90;;
46607;SDS011;32330;51.936;7.184;2024-01-06T14:41:54;20.17;;;13.68;;
46607;SDS011;32330;51.936;7.184;2024-01-06T14:44:21;18.45;;;14.88;;
46607;SDS011;32330;51.936;7.184;2024-01-06T14:46:49;18.88;;;14.85;;